createdAt,value
2024-04-18T00:00:47.655Z,88.38
2024-04-18T00:03:15.729Z,88.47
2024-04-18T00:05:42.361Z,88.46
2024-04-18T00:08:08.940Z,88.52
2024-04-18T00:10:35.602Z,88.37
2024-04-18T00:13:02.236Z,88.14
2024-04-18T00:15:28.825Z,88.04
2024-04-18T00:17:58.849Z,88.05
2024-04-18T00:20:26.118Z,88.08
2024-04-18T00:22:55.687Z,87.62
2024-04-18T00:25:23.389Z,87.89
2024-04-18T00:27:49.991Z,88.34
2024-04-18T00:30:17.872Z,88.12
2024-04-18T00:32:44.599Z,87.98
2024-04-18T00:35:11.258Z,87.74
2024-04-18T00:37:38.286Z,87.59
2024-04-18T00:40:05.425Z,87.35
2024-04-18T00:42:32.028Z,87.19
2024-04-18T00:44:58.696Z,87.31
2024-04-18T00:47:25.836Z,87.42
2024-04-18T00:49:53.198Z,87.23
2024-04-18T00:52:21.506Z,87.43
2024-04-18T00:54:49.674Z,87.59
2024-04-18T00:57:18.462Z,87.16
2024-04-18T00:59:48.336Z,87.46
2024-04-18T01:02:15.717Z,86.88
2024-04-18T01:04:42.855Z,87.19
2024-04-18T01:07:09.541Z,87.54
2024-04-18T01:09:36.076Z,87.85
2024-04-18T01:12:02.888Z,88.17
2024-04-18T01:14:30.837Z,88.36
2024-04-18T01:16:57.508Z,88.42
2024-04-18T01:19:24.300Z,88.44
2024-04-18T01:21:51.360Z,88.31
2024-04-18T01:24:17.997Z,88.14
2024-04-18T01:26:44.624Z,88.34
2024-04-18T01:29:11.305Z,88.20
2024-04-18T01:31:37.804Z,88.17
2024-04-18T01:34:04.435Z,88.02
2024-04-18T01:36:32.151Z,88.15
2024-04-18T01:38:58.756Z,88.31
2024-04-18T01:41:25.623Z,88.33
2024-04-18T01:43:52.291Z,88.49
2024-04-18T01:46:18.841Z,88.91
2024-04-18T01:48:46.827Z,88.99
2024-04-18T01:51:14.194Z,89.45
2024-04-18T01:53:41.419Z,89.77
2024-04-18T01:56:10.289Z,90.04
2024-04-18T01:58:36.890Z,90.37
2024-04-18T02:01:03.747Z,90.29
2024-04-18T02:03:32.269Z,90.42
2024-04-18T02:05:58.856Z,90.40
2024-04-18T02:08:25.471Z,90.57
2024-04-18T02:10:52.166Z,90.58
2024-04-18T02:13:21.337Z,90.71
2024-04-18T02:15:47.935Z,90.63
2024-04-18T02:18:14.638Z,90.76
2024-04-18T02:20:41.280Z,90.79
2024-04-18T02:23:08.973Z,90.74
2024-04-18T02:25:35.581Z,90.47
2024-04-18T02:28:02.314Z,90.28
2024-04-18T02:30:30.442Z,90.19
2024-04-18T02:32:57.532Z,90.10
2024-04-18T02:35:24.100Z,90.12
2024-04-18T02:37:50.687Z,89.83
2024-04-18T02:40:17.430Z,89.68
2024-04-18T02:42:44.149Z,89.84
2024-04-18T02:45:10.809Z,89.79
2024-04-18T02:47:37.428Z,89.74
2024-04-18T02:50:04.322Z,89.87
2024-04-18T02:52:31.070Z,90.15
2024-04-18T02:54:57.708Z,90.70
2024-04-18T02:57:25.154Z,91.05
2024-04-18T02:59:51.733Z,91.19
2024-04-18T03:02:18.405Z,90.86
2024-04-18T03:04:45.451Z,91.06
2024-04-18T03:07:12.147Z,91.20
2024-04-18T03:09:38.794Z,92.05
2024-04-18T03:12:05.717Z,92.78
2024-04-18T03:14:32.504Z,92.59
2024-04-18T03:16:59.120Z,92.19
2024-04-18T03:19:25.709Z,91.78
2024-04-18T03:21:53.508Z,91.59
2024-04-18T03:24:21.990Z,91.22
2024-04-18T03:26:49.926Z,91.20
2024-04-18T03:29:16.674Z,91.01
2024-04-18T03:31:44.643Z,90.95
2024-04-18T03:34:11.177Z,90.99
2024-04-18T03:36:42.820Z,91.10
2024-04-18T03:39:10.473Z,91.19
2024-04-18T03:41:39.820Z,91.53
2024-04-18T03:44:07.813Z,91.34
2024-04-18T03:46:36.870Z,91.27
2024-04-18T03:49:03.600Z,91.32
2024-04-18T03:51:31.573Z,91.26
2024-04-18T03:54:01.567Z,91.36
2024-04-18T03:56:28.075Z,91.67
2024-04-18T03:58:56.320Z,91.88
2024-04-18T04:01:25.263Z,92.20
2024-04-18T04:03:52.747Z,92.32
2024-04-18T04:06:19.432Z,92.33
2024-04-18T04:08:46.083Z,92.19
2024-04-18T04:11:12.840Z,92.33
2024-04-18T04:13:39.460Z,92.33
2024-04-18T04:16:06.473Z,92.59
2024-04-18T04:18:33.459Z,92.48
2024-04-18T04:21:00.395Z,92.48
2024-04-18T04:23:27.296Z,92.47
2024-04-18T04:25:54.426Z,92.43
2024-04-18T04:28:21.074Z,92.45
2024-04-18T04:30:47.688Z,92.27
2024-04-18T04:33:14.221Z,92.23
2024-04-18T04:35:40.757Z,92.33
2024-04-18T04:38:07.443Z,92.61
2024-04-18T04:40:35.252Z,92.65
2024-04-18T04:43:01.812Z,92.48
2024-04-18T04:45:28.838Z,92.63
2024-04-18T04:47:55.584Z,92.49
2024-04-18T04:50:23.903Z,92.43
2024-04-18T04:52:50.484Z,92.45
2024-04-18T04:55:17.115Z,92.42
2024-04-18T04:57:43.698Z,92.32
2024-04-18T05:00:10.699Z,92.32
2024-04-18T05:02:39.284Z,92.28
2024-04-18T05:05:07.253Z,92.30
2024-04-18T05:07:34.323Z,92.40
2024-04-18T05:10:01.383Z,92.36
2024-04-18T05:12:29.399Z,92.35
2024-04-18T05:14:56.068Z,92.33
2024-04-18T05:17:22.645Z,92.32
2024-04-18T05:19:50.556Z,92.10
2024-04-18T05:22:17.588Z,92.37
2024-04-18T05:24:44.418Z,92.12
2024-04-18T05:27:11.090Z,92.11
2024-04-18T05:29:56.018Z,92.00
2024-04-18T05:32:22.814Z,91.74
2024-04-18T05:34:50.920Z,91.75
2024-04-18T05:37:20.949Z,91.50
2024-04-18T05:39:50.617Z,91.32
2024-04-18T05:42:17.313Z,91.27
2024-04-18T05:44:43.944Z,90.76
2024-04-18T05:47:10.986Z,90.44
2024-04-18T05:49:37.866Z,90.42
2024-04-18T05:52:04.776Z,90.52
2024-04-18T05:54:32.442Z,90.52
2024-04-18T05:56:59.063Z,90.69
2024-04-18T05:59:25.668Z,91.02
2024-04-18T06:01:52.344Z,91.40
2024-04-18T06:04:20.540Z,90.61
2024-04-18T06:06:47.404Z,90.15
2024-04-18T06:09:14.063Z,89.56
2024-04-18T06:11:44.626Z,89.61
2024-04-18T06:14:16.603Z,89.40
2024-04-18T06:16:43.856Z,89.17
2024-04-18T06:19:11.599Z,89.41
2024-04-18T06:21:38.208Z,89.15
2024-04-18T06:24:06.324Z,89.04
2024-04-18T06:26:32.954Z,89.54
2024-04-18T06:32:39.588Z,87.84
2024-04-18T06:35:06.369Z,87.77
2024-04-18T06:37:33.025Z,87.47
2024-04-18T06:40:01.514Z,86.95
2024-04-18T06:42:29.945Z,86.40
2024-04-18T06:44:56.515Z,86.55
2024-04-18T06:47:23.131Z,86.58
2024-04-18T06:49:49.807Z,85.56
2024-04-18T06:52:16.432Z,85.96
2024-04-18T06:54:43.541Z,86.58
2024-04-18T06:57:10.332Z,86.53
2024-04-18T06:59:37.008Z,86.32
2024-04-18T07:02:05.122Z,86.45
2024-04-18T07:04:31.771Z,85.59
2024-04-18T07:07:00.313Z,84.59
2024-04-18T07:09:27.252Z,84.83
2024-04-18T07:11:54.981Z,84.18
2024-04-18T07:14:21.668Z,84.27
2024-04-18T07:16:48.604Z,83.49
2024-04-18T07:19:17.680Z,83.99
2024-04-18T07:21:44.329Z,83.71
2024-04-18T07:24:10.973Z,82.89
2024-04-18T07:26:37.729Z,82.24
2024-04-18T07:29:05.073Z,81.93
2024-04-18T07:31:31.702Z,81.88
2024-04-18T07:33:58.316Z,81.69
2024-04-18T07:36:25.284Z,80.51
2024-04-18T07:38:52.093Z,77.23
2024-04-18T07:41:18.715Z,73.06
2024-04-18T07:43:45.556Z,75.35
2024-04-18T07:46:14.147Z,73.64
2024-04-18T07:48:41.466Z,70.91
2024-04-18T07:51:08.367Z,70.37
2024-04-18T07:53:35.040Z,71.17
2024-04-18T07:56:03.418Z,70.80
2024-04-18T07:58:31.001Z,71.24
2024-04-18T08:00:59.130Z,70.41
2024-04-18T08:03:28.667Z,70.53
2024-04-18T08:05:58.085Z,69.53
2024-04-18T08:08:29.031Z,72.03
2024-04-18T08:13:30.777Z,71.69
2024-04-18T08:16:03.549Z,71.27
2024-04-18T08:18:31.763Z,70.81
2024-04-18T08:21:00.543Z,72.07
2024-04-18T08:23:27.409Z,72.02
2024-04-18T08:25:54.057Z,70.76
2024-04-18T08:28:21.181Z,67.81
2024-04-18T08:30:47.779Z,67.85
2024-04-18T08:33:14.491Z,67.20
2024-04-18T08:35:41.091Z,68.75
2024-04-18T08:38:09.808Z,67.26
2024-04-18T08:40:37.843Z,65.81
2024-04-18T08:43:05.346Z,62.58
2024-04-18T08:45:37.652Z,61.43
2024-04-18T08:48:06.667Z,62.28
2024-04-18T08:50:35.770Z,64.80
2024-04-18T08:53:03.315Z,63.75
2024-04-18T08:55:33.077Z,64.21
2024-04-18T08:58:05.850Z,66.62
2024-04-18T09:00:34.384Z,66.55
2024-04-18T09:03:01.803Z,66.92
2024-04-18T09:05:28.398Z,66.88
2024-04-18T09:07:55.034Z,65.82
2024-04-18T09:10:24.561Z,64.81
2024-04-18T09:12:55.690Z,60.67
2024-04-18T09:15:24.932Z,58.88
2024-04-18T09:18:06.366Z,57.75
2024-04-18T09:20:39.762Z,55.66
2024-04-18T09:23:06.688Z,60.52
2024-04-18T09:25:36.380Z,56.71
2024-04-18T09:28:05.601Z,57.35
2024-04-18T09:30:32.159Z,51.65
2024-04-18T09:33:04.231Z,51.01
2024-04-18T09:35:34.720Z,52.74
2024-04-18T09:38:09.274Z,54.31
2024-04-18T09:40:44.263Z,52.85
2024-04-18T09:43:23.146Z,53.03
2024-04-18T09:46:01.037Z,55.92
2024-04-18T09:48:29.308Z,55.35
2024-04-18T09:50:57.071Z,54.05
2024-04-18T09:53:23.706Z,58.11
2024-04-18T09:55:51.625Z,57.45
2024-04-18T09:58:26.060Z,57.94
2024-04-18T10:00:53.480Z,59.38
2024-04-18T10:03:20.633Z,60.62
2024-04-18T10:05:52.238Z,62.09
2024-04-18T10:08:23.695Z,62.71
2024-04-18T10:10:51.967Z,62.96
2024-04-18T10:13:23.208Z,63.67
2024-04-18T10:15:50.378Z,63.63
2024-04-18T10:18:20.497Z,63.59
2024-04-18T10:20:47.361Z,63.98
2024-04-18T10:23:15.140Z,58.38
2024-04-18T10:25:42.566Z,58.64
2024-04-18T10:28:26.512Z,58.14
2024-04-18T10:30:53.588Z,59.46
2024-04-18T10:33:29.743Z,58.65
2024-04-18T10:35:56.721Z,58.22
2024-04-18T10:38:29.878Z,58.42
2024-04-18T10:41:04.424Z,58.10
2024-04-18T10:43:33.810Z,57.21
2024-04-18T10:46:08.255Z,57.62
2024-04-18T10:48:35.771Z,58.83
2024-04-18T10:51:03.667Z,61.32
2024-04-18T10:53:41.935Z,58.89
2024-04-18T10:56:08.622Z,57.57
2024-04-18T10:58:37.054Z,56.13
2024-04-18T11:01:04.430Z,55.41
2024-04-18T11:03:31.933Z,51.22
2024-04-18T11:06:01.252Z,50.85
2024-04-18T11:08:34.930Z,51.04
2024-04-18T11:11:04.795Z,52.60
2024-04-18T11:13:31.772Z,54.61
2024-04-18T11:15:58.345Z,54.92
2024-04-18T11:18:25.850Z,55.53
2024-04-18T11:20:53.485Z,55.14
2024-04-18T11:23:32.188Z,56.32
2024-04-18T11:26:02.153Z,56.39
2024-04-18T11:28:29.513Z,55.79
2024-04-18T11:30:57.303Z,54.13
2024-04-18T11:33:26.039Z,50.02
2024-04-18T11:35:53.036Z,52.65
2024-04-18T11:38:19.606Z,53.08
2024-04-18T11:40:46.390Z,51.24
2024-04-18T11:43:12.972Z,50.30
2024-04-18T11:45:40.438Z,49.51
2024-04-18T11:48:11.660Z,47.37
2024-04-18T11:50:38.370Z,45.30
2024-04-18T11:53:05.032Z,43.60
2024-04-18T11:55:31.831Z,44.16
2024-04-18T11:57:58.500Z,40.44
2024-04-18T12:00:25.288Z,40.33
2024-04-18T12:02:52.215Z,39.16
2024-04-18T12:05:18.974Z,40.30
2024-04-18T12:07:49.973Z,40.49
2024-04-18T12:10:22.352Z,41.88
2024-04-18T12:12:50.630Z,42.58
2024-04-18T12:15:17.601Z,41.22
2024-04-18T12:17:44.382Z,37.84
2024-04-18T12:20:11.503Z,36.36
2024-04-18T12:22:38.090Z,43.97
2024-04-18T12:25:07.755Z,40.48
2024-04-18T12:27:34.512Z,39.86
2024-04-18T12:30:01.223Z,37.58
2024-04-18T12:32:27.904Z,38.53
2024-04-18T12:34:54.549Z,38.02
2024-04-18T12:37:21.182Z,40.35
2024-04-18T12:39:49.583Z,41.54
2024-04-18T12:42:16.460Z,42.55
2024-04-18T12:44:43.083Z,42.52
2024-04-18T12:47:12.009Z,39.64
2024-04-18T12:49:42.147Z,35.89
2024-04-18T12:52:08.890Z,33.54
2024-04-18T12:54:35.490Z,36.47
2024-04-18T12:57:02.214Z,39.36
2024-04-18T12:59:29.325Z,43.96
2024-04-18T13:01:56.014Z,43.99
2024-04-18T13:04:22.953Z,43.50
2024-04-18T13:06:49.762Z,42.82
2024-04-18T13:09:16.459Z,40.58
2024-04-18T13:11:43.113Z,39.02
2024-04-18T13:14:11.210Z,40.33
2024-04-18T13:16:38.210Z,39.88
2024-04-18T13:19:05.054Z,39.77
2024-04-18T13:21:31.658Z,40.78
2024-04-18T13:23:58.253Z,41.68
2024-04-18T13:26:24.922Z,42.59
2024-04-18T13:28:51.503Z,43.85
2024-04-18T13:31:18.123Z,44.41
2024-04-18T13:33:44.904Z,43.46
2024-04-18T13:36:13.311Z,40.74
2024-04-18T13:38:41.271Z,38.16
2024-04-18T13:41:08.082Z,39.25
2024-04-18T13:43:34.662Z,41.01
2024-04-18T13:46:01.375Z,42.13
2024-04-18T13:48:28.088Z,43.03
2024-04-18T13:50:56.296Z,43.23
2024-04-18T13:53:23.601Z,43.31
2024-04-18T13:55:52.191Z,44.51
2024-04-18T13:58:20.781Z,45.33
2024-04-18T14:00:48.068Z,44.73
2024-04-18T14:03:19.539Z,43.70
2024-04-18T14:05:46.991Z,41.80
2024-04-18T14:08:14.510Z,44.92
2024-04-18T14:10:41.748Z,47.05
2024-04-18T14:13:09.443Z,47.38
2024-04-18T14:15:39.984Z,47.50
2024-04-18T14:18:25.553Z,47.49
2024-04-18T14:20:53.342Z,46.03
2024-04-18T14:23:19.918Z,46.06
2024-04-18T14:25:46.504Z,46.79
2024-04-18T14:28:23.470Z,48.95
2024-04-18T14:30:54.581Z,49.74
2024-04-18T14:33:21.342Z,48.58
2024-04-18T14:35:48.061Z,48.25
2024-04-18T14:38:15.037Z,49.25
2024-04-18T14:40:49.868Z,49.28
2024-04-18T14:43:20.196Z,49.51
2024-04-18T14:45:46.908Z,49.18
2024-04-18T14:48:13.512Z,49.65
2024-04-18T14:50:40.293Z,49.60
2024-04-18T14:53:07.933Z,49.52
2024-04-18T14:55:34.599Z,50.25
2024-04-18T14:58:01.140Z,48.76
2024-04-18T15:00:27.730Z,47.40
2024-04-18T15:02:54.435Z,45.35
2024-04-18T15:05:22.613Z,42.03
2024-04-18T15:07:49.542Z,41.00
2024-04-18T15:10:16.965Z,41.85
2024-04-18T15:12:43.640Z,40.39
2024-04-18T15:15:10.726Z,42.61
2024-04-18T15:17:37.417Z,43.11
2024-04-18T15:20:04.946Z,43.05
2024-04-18T15:22:33.876Z,44.69
2024-04-18T15:25:00.422Z,43.59
2024-04-18T15:27:30.798Z,44.31
2024-04-18T15:29:57.927Z,46.29
2024-04-18T15:32:25.220Z,46.28
2024-04-18T15:34:52.031Z,45.94
2024-04-18T15:37:18.911Z,45.57
2024-04-18T15:39:45.514Z,45.37
2024-04-18T15:42:12.165Z,46.69
2024-04-18T15:44:38.794Z,45.93
2024-04-18T15:47:06.653Z,46.43
2024-04-18T15:49:34.038Z,47.23
2024-04-18T15:52:00.579Z,48.21
2024-04-18T15:54:27.233Z,48.08
2024-04-18T15:56:54.152Z,47.72
2024-04-18T15:59:20.801Z,47.21
2024-04-18T16:01:47.616Z,47.01
2024-04-18T16:04:14.342Z,47.59
2024-04-18T16:06:41.658Z,47.03
2024-04-18T16:09:08.324Z,47.36
2024-04-18T16:11:34.992Z,47.40
2024-04-18T16:14:01.860Z,48.27
2024-04-18T16:16:28.508Z,48.55
2024-04-18T16:18:55.160Z,49.02
2024-04-18T16:21:22.140Z,49.32
2024-04-18T16:23:49.808Z,49.57
2024-04-18T16:26:16.431Z,49.16
2024-04-18T16:28:43.428Z,49.67
2024-04-18T16:31:10.028Z,49.73
2024-04-18T16:33:37.901Z,48.86
2024-04-18T16:36:05.259Z,49.85
2024-04-18T16:38:32.784Z,50.61
2024-04-18T16:41:00.761Z,51.42
2024-04-18T16:43:27.379Z,52.22
2024-04-18T16:45:53.945Z,52.61
2024-04-18T16:48:20.873Z,52.91
2024-04-18T16:50:48.106Z,53.74
2024-04-18T16:53:15.218Z,54.04
2024-04-18T16:55:41.805Z,53.78
2024-04-18T16:58:08.371Z,50.65
2024-04-18T17:00:37.379Z,51.71
2024-04-18T17:03:04.715Z,52.56
2024-04-18T17:05:31.375Z,53.48
2024-04-18T17:07:57.913Z,53.41
2024-04-18T17:10:26.748Z,54.09
2024-04-18T17:12:53.433Z,53.57
2024-04-18T17:15:20.124Z,54.49
2024-04-18T17:17:48.169Z,54.29
2024-04-18T17:20:14.831Z,55.28
2024-04-18T17:22:41.398Z,55.18
2024-04-18T17:25:09.915Z,55.66
2024-04-18T17:27:36.771Z,55.34
2024-04-18T17:30:03.648Z,55.18
2024-04-18T17:32:30.431Z,55.90
2024-04-18T17:34:57.064Z,56.56
2024-04-18T17:37:23.610Z,57.17
2024-04-18T17:39:51.814Z,57.50
2024-04-18T17:42:18.588Z,57.26
2024-04-18T17:44:46.658Z,57.39
2024-04-18T17:47:14.311Z,57.03
2024-04-18T17:49:40.987Z,57.52
2024-04-18T17:52:07.765Z,57.52
2024-04-18T17:58:51.769Z,58.40
2024-04-18T18:01:18.620Z,58.53
2024-04-18T18:03:45.242Z,58.78
2024-04-18T18:06:11.966Z,58.85
2024-04-18T18:08:40.591Z,59.29
2024-04-18T18:11:07.145Z,59.58
2024-04-18T18:13:33.701Z,59.33
2024-04-18T18:16:00.351Z,59.63
2024-04-18T18:18:27.388Z,59.76
2024-04-18T18:20:54.043Z,59.46
2024-04-18T18:23:22.303Z,59.42
2024-04-18T18:25:49.061Z,59.71
2024-04-18T18:28:18.612Z,59.64
2024-04-18T18:30:45.244Z,59.90
2024-04-18T18:33:11.854Z,60.20
2024-04-18T18:35:38.458Z,60.56
2024-04-18T18:38:05.244Z,60.88
2024-04-18T18:40:34.752Z,61.39
2024-04-18T18:43:02.490Z,61.50
2024-04-18T18:45:29.121Z,61.81
2024-04-18T18:47:56.437Z,61.71
2024-04-18T18:50:23.254Z,62.12
2024-04-18T18:52:50.149Z,62.86
2024-04-18T18:55:16.911Z,62.85
2024-04-18T18:57:49.209Z,63.23
2024-04-18T19:00:16.073Z,63.48
2024-04-18T19:02:46.873Z,63.28
2024-04-18T19:05:14.921Z,63.59
2024-04-18T19:07:41.452Z,64.32
2024-04-18T19:10:08.236Z,64.70
2024-04-18T19:12:36.614Z,63.63
2024-04-18T19:15:03.963Z,64.31
2024-04-18T19:17:32.255Z,63.88
2024-04-18T19:19:59.602Z,64.07
2024-04-18T19:22:26.440Z,63.81
2024-04-18T19:24:53.137Z,64.48
2024-04-18T19:27:20.380Z,64.45
2024-04-18T19:29:47.982Z,64.35
2024-04-18T19:32:16.715Z,64.77
2024-04-18T19:34:43.475Z,64.62
2024-04-18T19:37:11.213Z,65.11
2024-04-18T19:39:37.816Z,64.88
2024-04-18T19:42:04.899Z,65.32
2024-04-18T19:44:32.225Z,65.77
2024-04-18T19:47:01.194Z,66.04
2024-04-18T19:49:29.733Z,66.22
2024-04-18T19:52:00.750Z,66.52
2024-04-18T19:54:30.096Z,66.41
2024-04-18T19:57:01.202Z,66.71
2024-04-18T19:59:28.965Z,66.60
2024-04-18T20:01:55.536Z,67.13
2024-04-18T20:04:22.862Z,67.19
2024-04-18T20:06:49.565Z,66.87
2024-04-18T20:09:16.210Z,66.97
2024-04-18T20:11:45.199Z,67.49
2024-04-18T20:14:11.743Z,67.26
2024-04-18T20:16:44.842Z,67.60
2024-04-18T20:19:14.260Z,67.66
2024-04-18T20:21:43.170Z,67.70
2024-04-18T20:24:11.060Z,66.80
2024-04-18T20:26:38.944Z,66.27
2024-04-18T20:29:10.309Z,65.53
2024-04-18T20:31:37.354Z,66.01
2024-04-18T20:34:04.285Z,65.92
2024-04-18T20:36:33.778Z,65.87
2024-04-18T20:39:00.370Z,65.60
2024-04-18T20:41:27.013Z,65.69
2024-04-18T20:43:53.850Z,65.44
2024-04-18T20:46:30.228Z,65.49
2024-04-18T20:48:57.282Z,65.43
2024-04-18T20:51:24.174Z,65.37
2024-04-18T20:53:50.957Z,65.63
2024-04-18T20:56:19.002Z,65.68
2024-04-18T20:58:46.167Z,65.68
2024-04-18T21:01:13.058Z,65.84
2024-04-18T21:03:39.898Z,66.24
2024-04-18T21:06:06.805Z,66.87
2024-04-18T21:08:34.211Z,66.82
2024-04-18T21:11:02.078Z,67.10
2024-04-18T21:13:28.739Z,66.86
2024-04-18T21:15:59.715Z,67.29
2024-04-18T21:18:26.724Z,67.63
2024-04-18T21:20:53.856Z,67.66
2024-04-18T21:23:21.061Z,68.07
2024-04-18T21:25:47.775Z,68.19
2024-04-18T21:28:14.442Z,67.95
2024-04-18T21:30:41.375Z,68.07
2024-04-18T21:33:08.412Z,67.94
2024-04-18T21:35:36.282Z,68.03
2024-04-18T21:38:04.869Z,68.50
2024-04-18T21:40:31.746Z,67.54
2024-04-18T21:43:03.807Z,67.89
2024-04-18T21:45:31.863Z,67.86
2024-04-18T21:47:59.531Z,67.98
2024-04-18T21:50:26.311Z,68.34
2024-04-18T21:52:53.110Z,68.08
2024-04-18T21:55:19.844Z,68.13
2024-04-18T21:57:46.626Z,68.01
2024-04-18T22:00:13.593Z,68.14
2024-04-18T22:02:40.498Z,68.00
2024-04-18T22:05:07.372Z,68.45
2024-04-18T22:07:34.164Z,68.49
2024-04-18T22:10:00.874Z,69.09
2024-04-18T22:12:27.574Z,69.22
2024-04-18T22:14:56.539Z,69.53
2024-04-18T22:17:24.590Z,69.75
2024-04-18T22:19:51.798Z,70.03
2024-04-18T22:22:18.516Z,69.45
2024-04-18T22:24:45.200Z,69.47
2024-04-18T22:27:12.715Z,68.90
2024-04-18T22:29:39.607Z,69.33
2024-04-18T22:32:06.845Z,69.10
2024-04-18T22:34:37.279Z,69.15
2024-04-18T22:37:04.836Z,69.13
2024-04-18T22:39:32.143Z,68.65
2024-04-18T22:41:58.868Z,68.52
2024-04-18T22:44:25.639Z,68.34
2024-04-18T22:46:52.315Z,68.18
2024-04-18T22:49:19.050Z,68.35
2024-04-18T22:51:46.045Z,68.58
2024-04-18T22:54:12.749Z,68.30
2024-04-18T22:56:39.482Z,68.22
2024-04-18T22:59:06.479Z,67.89
2024-04-18T23:01:33.200Z,68.36
2024-04-18T23:04:00.538Z,68.12
2024-04-18T23:06:27.342Z,67.75
2024-04-18T23:08:54.374Z,67.56
2024-04-18T23:11:22.209Z,67.86
2024-04-18T23:13:49.738Z,67.64
2024-04-18T23:16:16.471Z,67.84
2024-04-18T23:18:44.850Z,68.02
2024-04-18T23:21:11.862Z,68.05
2024-04-18T23:23:38.624Z,68.52
2024-04-18T23:26:05.363Z,68.47
2024-04-18T23:28:32.099Z,68.51
2024-04-18T23:30:59.122Z,68.97
2024-04-18T23:33:25.910Z,69.38
2024-04-18T23:35:52.657Z,69.39
2024-04-18T23:38:19.376Z,69.61
2024-04-18T23:40:46.589Z,69.80
2024-04-18T23:43:13.263Z,69.65
2024-04-18T23:45:40.132Z,70.48
2024-04-18T23:48:08.089Z,70.89
2024-04-18T23:50:34.865Z,71.97
2024-04-18T23:53:01.537Z,71.78
2024-04-18T23:55:28.335Z,71.93
